METAR Data
IDs: Format: Raw Decoded Include TAF

Data at: 1135 UTC 21 Sep 2018

KCVB 210030Z AUTO 11009KT 10SM 28/22 A2990 RMK AO2 T02750221
KCVB 210015Z AUTO 12006KT 4SM HZ BKN042 28/22 A2989 RMK AO2 T02840218
KCVB 202355Z AUTO 15005KT 10SM CLR 29/22 A2989 RMK AO2 60006 T02860216 10313 20262
KCVB 202335Z AUTO 15006KT 10SM SCT034 29/22 A2988 RMK AO2 T02880215
KCVB 202315Z AUTO 16006KT 10SM SCT034 SCT040 SCT060 29/22 A2988 RMK AO2 T02910217
KCVB 202255Z AUTO 16006KT 10SM CLR 29/21 A2988 RMK AO2 T02920214
KCVB 202235Z AUTO 17007KT 7SM CLR 29/21 A2988 RMK AO2 T02910212
KCVB 202215Z AUTO 19009KT 7SM CLR 30/20 A2989 RMK AO2 T02960201
KCVB 202155Z AUTO 20010KT 7SM CLR 31/20 A2989 RMK AO2 LTG DSNT S T03110200
KCVB 202135Z AUTO 18011G17KT 7SM CLR 31/19 A2988 RMK AO2 T03110185
KCVB 202115Z AUTO 17009KT 5SM HZ SCT036 SCT044 31/21 A2988 RMK AO2 T03080214
KCVB 202055Z AUTO 17011G16KT 10SM SCT036 SCT042 31/21 A2989 RMK AO2 LTG DSNT E 60006 T03100209
KCVB 202035Z AUTO 19011G15KT 10SM SCT032 SCT070 SCT095 30/21 A2990 RMK AO2 LTG DSNT N AND E T03000206
KCVB 202015Z AUTO 19010G16KT 7SM OVC032 30/22 A2991 RMK AO2 T02970222
KCVB 201955Z AUTO 18007KT 7SM SCT034 BKN041 BKN050 29/22 A2992 RMK AO2 LTG DSNT NE AND SE T02930222
KCVB 201935Z AUTO 15008KT 10SM SCT026 SCT040 BKN070 28/23 A2992 RMK AO2 T02820226
KCVB 201915Z AUTO 14009G14KT 7SM SCT028 SCT049 28/22 A2993 RMK AO2 T02810222
KCVB 201855Z AUTO 19004KT 4SM -RA SCT023 BKN028 BKN041 26/25 A2994 RMK AO2 LTG DSNT NE P0006 T02640251
KCVB 201835Z AUTO 22004KT 5SM +RA BKN023 BKN028 OVC045 27/23 A2995 RMK AO2 P0002 T02700226
KCVB 201815Z AUTO 15006KT 10SM BKN025 BKN031 BKN100 29/22 A2996 RMK AO2 LTG DSNT N AND E T02900218
KCVB 201755Z AUTO 17009KT 10SM SCT023 SCT030 BKN100 29/22 A2997 RMK AO2 LTG DSNT E T02860215 10288 20250
KCVB 201735Z AUTO 17009KT 10SM SCT023 SCT030 BKN100 29/22 A2998 RMK AO2 T02850216
KCVB 201715Z AUTO 16011G14KT 10SM SCT023 BKN110 28/22 A2999 RMK AO2 T02810217
KCVB 201655Z AUTO 16010G15KT 10SM SCT021 SCT026 BKN060 28/22 A2999 RMK AO2 T02800216
KCVB 201635Z AUTO 14007KT 10SM BKN019 BKN027 OVC110 28/23 A2999 RMK AO2 T02790225
KCVB 201615Z AUTO 14008KT 10SM SCT018 BKN022 OVC034 28/22 A2999 RMK AO2 T02800222
KCVB 201555Z AUTO 16007KT 7SM BKN016 BKN026 OVC120 28/22 A2999 RMK AO2 T02790222
KCVB 201535Z AUTO 14010KT 10SM BKN014 BKN020 28/24 A2999 RMK AO2 LTG DSNT E T02750240
KCVB 201515Z AUTO 17006KT 7SM BKN012 BKN019 27/24 A2998 RMK AO2 LTG DSNT N NE AND SW T02690242
KCVB 201455Z AUTO 14005KT 10SM VCTS BKN010 BKN013 26/25 A2998 RMK AO2 T02640245
KCVB 201435Z AUTO 15005KT 10SM BKN008 BKN013 26/25 A2997 RMK AO2 T02600247
KCVB 201415Z AUTO 16006KT 10SM BKN008 BKN013 BKN034 26/25 A2998 RMK AO2 T02560248
KCVB 201355Z AUTO 16005KT 10SM SCT006 SCT033 BKN080 25/25 A2997 RMK AO2 T02530246
KCVB 201335Z AUTO 16004KT 10SM SCT014 SCT024 SCT090 25/25 A2997 RMK AO2 LTG DSNT NE T02500245
KCVB 201315Z AUTO 13004KT 10SM SCT016 SCT024 25/25 A2996 RMK AO2 LTG DSNT NE T02500245
KCVB 201255Z AUTO 14005KT 10SM VCTS SCT016 SCT023 SCT100 25/25 A2995 RMK AO2 LTG DSNT E T02500245
KCVB 201235Z AUTO 15004KT 10SM SCT012 SCT018 BKN095 25/25 A2995 RMK AO2 LTG DSNT E AND SE T02500245
KCVB 201215Z AUTO 16006KT 10SM SCT010 SCT016 BKN100 25/25 A2995 RMK AO2 LTG DSNT E AND SE T02500245
KCVB 201155Z AUTO 16004KT 10SM VCTS BKN012 BKN016 OVC022 25/25 A2995 RMK AO2 LTG DSNT E SE AND NW T02510246 10254 20250
KCVB 201135Z AUTO 15005KT 10SM BKN013 OVC021 25/25 A2995 RMK AO2 LTG DSNT NW T02510246
KCVB 201115Z AUTO 17005KT 10SM OVC011 25/25 A2994 RMK AO2 LTG DSNT NW T02510246
KCVB 201055Z AUTO 16005KT 10SM BKN009 OVC012 25/25 A2995 RMK AO2 LTG DSNT NW T02520247
KCVB 201035Z AUTO 16005KT 10SM OVC009 25/25 A2994 RMK AO2 T02520247
KCVB 201015Z AUTO 15006KT 10SM OVC009 25/25 A2994 RMK AO2 T02500245
KCVB 200955Z AUTO 15006KT 10SM OVC009 25/25 A2994 RMK AO2 LTG DSNT NW T02500245
KCVB 200935Z AUTO 14005KT 10SM OVC007 25/25 A2995 RMK AO2 T02510245
KCVB 200915Z AUTO 13005KT 10SM OVC007 25/25 A2995 RMK AO2 T02520245
KCVB 200855Z AUTO 13003KT 10SM OVC007 25/25 A2995 RMK AO2 T02520245
KCVB 200835Z AUTO 00000KT 10SM OVC007 25/24 A2996 RMK AO2 T02520244
KCVB 200815Z AUTO 11003KT 10SM OVC007 25/24 A2997 RMK AO2 T02510243
KCVB 200755Z AUTO 12003KT 10SM OVC009 25/24 A2996 RMK AO2 T02510243
KCVB 200735Z AUTO 12004KT 10SM OVC009 25/24 A2996 RMK AO2 T02520243
KCVB 200715Z AUTO 12003KT 10SM BKN009 25/24 A2996 RMK AO2 T02520242
KCVB 200655Z AUTO 14004KT 10SM OVC009 25/24 A2997 RMK AO2 T02530243
KCVB 200635Z AUTO 12003KT 10SM OVC011 25/24 A2997 RMK AO2 T02530242
KCVB 200615Z AUTO 14004KT 10SM OVC011 25/24 A2998 RMK AO2 T02530242
KCVB 200555Z AUTO 14004KT 10SM BKN013 BKN018 25/24 A2998 RMK AO2 T02530241 10286 20252 403290235
KCVB 200535Z AUTO 15004KT 10SM CLR 25/24 A2998 RMK AO2 T02520240
KCVB 200515Z AUTO 15004KT 10SM SCT060 SCT080 25/24 A2997 RMK AO2 T02530239
KCVB 200455Z AUTO 14004KT 10SM SCT060 SCT070 BKN080 26/24 A2997 RMK AO2 T02550237
KCVB 200435Z AUTO 14005KT 10SM SCT060 BKN070 26/23 A2997 RMK AO2 T02570234
KCVB 200415Z AUTO 14006KT 10SM CLR 26/23 A2997 RMK AO2 T02570233
KCVB 200355Z AUTO 15006KT 10SM CLR 26/23 A2997 RMK AO2 T02550232
KCVB 200335Z AUTO 17006KT 10SM CLR 26/23 A2997 RMK AO2 T02550231
KCVB 200315Z AUTO 15005KT 10SM CLR 26/22 A2996 RMK AO2 T02600220
KCVB 200255Z AUTO 14004KT 10SM CLR 26/22 A2995 RMK AO2 T02610220
KCVB 200235Z AUTO 15006KT 10SM SCT034 SCT044 SCT060 26/22 A2994 RMK AO2 T02620215
KCVB 200215Z AUTO 15004KT 7SM SCT038 SCT044 BKN050 26/21 A2993 RMK AO2 T02600210
KCVB 200155Z AUTO 00000KT 10SM SCT046 SCT050 SCT070 26/21 A2992 RMK AO2 T02550208
KCVB 200135Z AUTO 00000KT 10SM CLR 27/19 A2991 RMK AO2 T02680194
KCVB 200115Z AUTO 08003KT 10SM CLR 27/20 A2990 RMK AO2 T02650198
KCVB 200055Z AUTO 00000KT 10SM CLR 27/20 A2990 RMK AO2 T02650201
KCVB 200035Z AUTO 00000KT 10SM SCT050 27/19 A2990 RMK AO2 T02730185
KCVB 200015Z AUTO 21003KT 7SM CLR 27/20 A2991 RMK AO2 LTG DSNT N T02690198
KCVB 192355Z AUTO 14011G23KT 7SM SCT045 SCT050 SCT080 29/19 A2992 RMK AO2 LTG DSNT SE THRU W T02920186 10329 20292